Terminal Aerodrome Forecast
Issued by NWS

Home | Current Version | Previous Version | Text Only | Print | Product List | Glossary On
Versions: 1 2 3 4 5 6 7 8 9 10 11 12 13 14 15 16 17 18 19 20
000
FTUS43 KGRR 291140
TAFMKG
TAF
KMKG 291140Z 2912/3012 09005KT P6SM SCT250
     FM291700 23007KT P6SM SCT250
     FM300100 VRB03KT P6SM SCT035 BKN200=

USA.gov is the U.S. government's official web portal to all federal, state and local government web resources and services.